Time;durP1;ratioP1;P1;durP2;ratioP2;P2;SDS_P1;SDS_P2;PMS_P1;PMS_P2;Temp;Humidity;BMP_temperature;BMP_pressure;BME280_temperature;BME280_humidity;BME280_pressure;Samples;Min_cycle;Max_cycle;Signal;HPM_P1;HPM_P2
2021/09/11 00:00:33;;;;;;;;;;;19.40;99.90;;;19.21;100.00;100949.47;5032231;28;19929;-62
2021/09/11 00:03:00;;;;;;;;;;;19.40;99.90;;;19.33;100.00;100951.41;5032419;28;19980;-62
2021/09/11 00:05:29;;;;;;;;;;;19.30;99.90;;;19.41;100.00;100959.53;5031625;28;20392;-62
2021/09/11 00:07:57;;;;;;;;;;;19.40;99.90;;;19.47;100.00;100965.59;5031066;28;19929;-62
2021/09/11 00:10:25;;;;;;;;;;;19.40;99.90;;;19.49;100.00;100964.09;5032397;28;19979;-62
2021/09/11 00:12:52;;;;;;;;;;;19.40;99.90;;;19.52;100.00;100962.59;5032325;28;19955;-62
2021/09/11 00:15:20;;;;;;;;;;;19.40;99.90;;;19.50;100.00;100954.72;5031529;28;19929;-62
2021/09/11 00:17:49;;;;;;;;;;;19.40;99.90;;;19.46;100.00;100939.28;5031220;28;20308;-62
2021/09/11 00:20:17;;;;;;;;;;;19.40;99.90;;;19.43;100.00;100938.03;5031806;28;19925;-62
2021/09/11 00:22:46;;;;;;;;;;;19.30;99.90;;;19.40;100.00;100938.72;5032074;28;19964;-61
2021/09/11 00:25:14;;;;;;;;;;;19.30;99.90;;;19.34;100.00;100939.28;5031655;28;19936;-62
2021/09/11 00:27:41;;;;;;;;;;;19.20;99.90;;;19.26;100.00;100932.00;5031207;28;19933;-61
2021/09/11 00:30:10;;;;;;;;;;;19.20;99.90;;;19.15;100.00;100920.69;5031914;28;19925;-62
2021/09/11 00:32:42;;;;;;;;;;;19.20;99.90;;;19.03;100.00;100923.44;5032036;28;19932;-62
2021/09/11 00:35:12;;;;;;;;;;;19.10;99.90;;;18.99;100.00;100928.03;5031574;28;19929;-62
2021/09/11 00:37:39;;;;;;;;;;;19.10;99.90;;;18.98;100.00;100929.16;5030862;28;19925;-62
2021/09/11 00:40:10;;;;;;;;;;;19.00;99.90;;;19.00;100.00;100921.38;5031864;28;20447;-62
2021/09/11 00:42:37;;;;;;;;;;;19.00;99.90;;;19.04;100.00;100927.78;5035446;28;19972;-62
2021/09/11 00:45:06;;;;;;;;;;;19.00;99.90;;;19.07;100.00;100933.38;5035073;28;19925;-62
2021/09/11 00:47:34;;;;;;;;;;;19.00;99.90;;;19.07;100.00;100927.09;5034199;28;19929;-62
2021/09/11 00:50:02;;;;;;;;;;;19.00;99.90;;;18.99;100.00;100912.38;5035090;28;19925;-62
2021/09/11 00:52:30;;;;;;;;;;;19.00;99.90;;;18.96;100.00;100904.84;5035449;28;19954;-62
2021/09/11 00:54:57;;;;;;;;;;;19.00;99.90;;;18.96;100.00;100909.53;5034811;28;20293;-62
2021/09/11 00:57:27;;;;;;;;;;;18.90;99.90;;;18.96;100.00;100902.13;5034220;28;19979;-62
2021/09/11 00:59:55;;;;;;;;;;;18.90;99.90;;;18.93;100.00;100899.25;5034844;28;19925;-62
2021/09/11 01:02:23;;;;;;;;;;;;;;;18.87;100.00;100892.41;5035060;28;20043;-62
2021/09/11 01:04:50;;;;;;;;;;;;;;;18.77;100.00;100890.13;5035090;28;20372;-62
2021/09/11 01:07:18;;;;;;;;;;;;;;;18.71;100.00;100886.81;5033936;28;20426;-62
2021/09/11 01:09:46;;;;;;;;;;;;;;;18.69;100.00;100885.56;5034567;28;19929;-62
2021/09/11 01:12:14;;;;;;;;;;;;;;;18.65;100.00;100881.91;5034921;28;20381;-62
2021/09/11 01:14:43;;;;;;;;;;;;;;;18.66;100.00;100872.56;5034702;28;19932;-62
2021/09/11 01:17:14;;;;;;;;;;;;;;;18.69;100.00;100871.88;5033767;28;19932;-62
2021/09/11 01:19:41;;;;;;;;;;;;;;;18.76;100.00;100875.63;5034795;28;19925;-62
2021/09/11 01:22:12;;;;;;;;;;;;;;;18.82;100.00;100873.44;5034750;28;19929;-62
2021/09/11 01:24:53;;;;;;;;;;;;;;;18.86;100.00;100874.38;5034838;28;19932;-62
2021/09/11 01:27:20;;;;;;;;;;;;;;;18.89;100.00;100870.94;5033449;28;19929;-62
2021/09/11 01:29:52;;;;;;;;;;;;;;;18.93;100.00;100858.97;5034564;28;19925;-62
2021/09/11 01:32:20;;;;;;;;;;;;;;;18.98;100.00;100855.16;5034758;28;19929;-62
2021/09/11 01:34:48;;;;;;;;;;;;;;;19.00;100.00;100850.94;5034481;28;19929;-62
2021/09/11 01:37:16;;;;;;;;;;;;;;;19.00;100.00;100837.22;5033283;28;19926;-62
2021/09/11 01:39:47;;;;;;;;;;;;;;;18.95;100.00;100839.41;5034229;28;20445;-62
2021/09/11 01:42:17;;;;;;;;;;;;;;;18.90;100.00;100836.94;5034343;28;20024;-62
2021/09/11 01:44:45;;;;;;;;;;;;;;;18.90;100.00;100839.66;5034575;28;19925;-62
2021/09/11 01:47:13;;;;;;;;;;;;;;;18.89;100.00;100833.38;5032939;28;19951;-62
2021/09/11 01:49:41;;;;;;;;;;;;;;;18.92;100.00;100837.38;5034300;28;20395;-62
2021/09/11 01:52:09;;;;;;;;;;;;;;;18.90;100.00;100839.66;5033264;28;19925;-62
2021/09/11 01:54:37;;;;;;;;;;;;;;;18.93;100.00;100848.00;5034361;28;19925;-62
2021/09/11 01:57:06;;;;;;;;;;;;;;;18.92;100.00;100831.88;5032853;28;19925;-62
2021/09/11 01:59:36;;;;;;;;;;;;;;;18.87;100.00;100829.41;5034154;28;19971;-62
2021/09/11 02:02:04;;;;;;;;;;;;;;;18.84;100.00;100830.88;5033779;28;19931;-62
2021/09/11 02:04:32;;;;;;;;;;;;;;;18.84;100.00;100827.34;5033945;28;19929;-62
2021/09/11 02:07:01;;;;;;;;;;;;;;;18.84;100.00;100816.38;5032447;28;19925;-62
2021/09/11 02:09:29;;;;;;;;;;;;;;;18.81;100.00;100806.13;5033789;28;20024;-62
2021/09/11 02:11:57;;;;;;;;;;;;;;;18.74;100.00;100800.41;5033746;28;19925;-62
2021/09/11 02:14:25;;;;;;;;;;;;;;;18.92;100.00;100796.28;5033652;28;20368;-62
2021/09/11 02:16:54;;;;;;;;;;;;;;;19.00;100.00;100790.66;5032574;28;19928;-62
2021/09/11 02:19:22;;;;;;;;;;;;;;;19.01;100.00;100780.47;5033524;28;19932;-62
2021/09/11 02:21:50;;;;;;;;;;;;;;;19.10;100.00;100781.16;5033563;28;19925;-62
2021/09/11 02:24:18;;;;;;;;;;;;;;;19.23;100.00;100790.13;5033462;28;19932;-62
2021/09/11 02:26:46;;;;;;;;;;;;;;;19.28;100.00;100779.72;5032623;28;19931;-62
2021/09/11 02:29:14;;;;;;;;;;;;;;;19.30;100.00;100779.38;5033503;28;19947;-62
2021/09/11 02:31:42;;;;;;;;;;;;;;;19.35;100.00;100787.34;5033310;28;19925;-62
2021/09/11 02:34:11;;;;;;;;;;;;;;;19.39;100.00;100780.84;5033307;28;19929;-62
2021/09/11 02:36:39;;;;;;;;;;;;;;;19.42;100.00;100787.56;5032101;28;19929;-62
2021/09/11 02:39:08;;;;;;;;;;;;;;;19.43;100.00;100783.66;5033416;28;19994;-62
2021/09/11 02:41:36;;;;;;;;;;;;;;;19.42;100.00;100777.41;5033047;28;19968;-62
2021/09/11 02:44:05;;;;;;;;;;;;;;;19.44;100.00;100774.31;5033315;28;19925;-62
2021/09/11 02:46:33;;;;;;;;;;;;;;;19.42;100.00;100766.44;5031730;28;19929;-62
2021/09/11 02:49:01;;;;;;;;;;;;;;;19.39;100.00;100761.66;5033039;28;19979;-62
2021/09/11 02:51:30;;;;;;;;;;;;;;;19.40;100.00;100763.22;5032902;28;19929;-63
2021/09/11 02:53:58;;;;;;;;;;;;;;;19.41;100.00;100764.03;5033112;28;19929;-62
2021/09/11 02:56:26;;;;;;;;;;;;;;;19.41;100.00;100761.28;5031813;28;19933;-62
2021/09/11 02:58:54;;;;;;;;;;;;;;;19.41;100.00;100764.03;5032879;28;19925;-62
2021/09/11 03:01:23;;;;;;;;;;;;;;;19.37;100.00;100761.16;5032637;28;20019;-62
2021/09/11 03:03:50;;;;;;;;;;;;;;;19.33;100.00;100752.03;5032841;28;20372;-62
2021/09/11 03:06:18;;;;;;;;;;;;;;;19.28;100.00;100748.75;5031668;28;19931;-62
2021/09/11 03:08:48;;;;;;;;;;;;;;;19.24;100.00;100742.38;5032260;28;19979;-62
2021/09/11 03:11:16;;;;;;;;;;;;;;;19.25;100.00;100744.75;5032483;28;19935;-62
2021/09/11 03:13:44;;;;;;;;;;;;;;;19.29;100.00;100748.41;5032798;28;20365;-62
2021/09/11 03:16:11;;;;;;;;;;;;;;;19.31;100.00;100750.78;5031705;28;20390;-62
2021/09/11 03:18:39;;;;;;;;;;;;;;;19.32;100.00;100739.50;5032205;28;20222;-62
2021/09/11 03:21:07;;;;;;;;;;;;;;;19.37;100.00;100731.00;5032609;28;19987;-62
2021/09/11 03:23:35;;;;;;;;;;;;;;;19.36;100.00;100728.63;5032387;28;19964;-62
2021/09/11 03:26:05;;;;;;;;;;;;;;;19.35;100.00;100733.31;5031572;28;19929;-62
2021/09/11 03:28:33;;;;;;;;;;;;;;;19.33;100.00;100730.09;5032200;28;19931;-62
2021/09/11 03:31:01;;;;;;;;;;;;;;;19.35;100.00;100727.81;5032568;28;20019;-62
2021/09/11 03:33:29;;;;;;;;;;;;;;;19.37;100.00;100724.72;5032500;28;19929;-62
2021/09/11 03:35:57;;;;;;;;;;;;;;;19.34;100.00;100736.38;5031443;28;19929;-62
2021/09/11 03:38:24;;;;;;;;;;;;;;;19.36;100.00;100734.09;5032059;28;19929;-62
2021/09/11 03:40:52;;;;;;;;;;;;;;;19.41;100.00;100731.94;5032451;28;19936;-62
2021/09/11 03:43:22;;;;;;;;;;;;;;;19.52;100.00;100726.72;5032294;28;19929;-62
2021/09/11 03:45:50;;;;;;;;;;;;;;;19.53;100.00;100720.91;5031768;28;20126;-62
2021/09/11 03:48:18;;;;;;;;;;;;;;;19.54;100.00;100717.00;5032051;28;19929;-62
2021/09/11 03:50:45;;;;;;;;;;;;;;;19.52;100.00;100713.81;5032285;28;19952;-62
2021/09/11 03:53:13;;;;;;;;;;;;;;;19.68;100.00;100713.03;5032334;28;20386;-62
2021/09/11 03:55:41;;;;;;;;;;;;;;;19.76;100.00;100720.31;5031434;28;19931;-61
2021/09/11 03:58:09;;;;;;;;;;;;;;;19.83;100.00;100704.78;5031785;28;19936;-62
2021/09/11 04:00:38;;;;;;;;;;;;;;;19.90;100.00;100709.66;5032489;28;19925;-62
2021/09/11 04:03:06;;;;;;;;;;;;;;;19.87;100.00;100708.44;5031987;28;19925;-62
2021/09/11 04:05:34;;;;;;;;;;;;;;;19.95;100.00;100701.97;5031598;28;19925;-62
2021/09/11 04:08:01;;;;;;;;;;;;;;;20.03;100.00;100708.44;5031371;28;19932;-62
2021/09/11 04:10:29;;;;;;;;;;;;;;;20.06;100.00;100696.75;5032201;28;19936;-62
2021/09/11 04:12:57;;;;;;;;;;;;;;;20.13;100.00;100675.72;5031963;28;19925;-62
2021/09/11 04:15:25;;;;;;;;;;;;;;;20.24;100.00;100686.97;5032211;28;20277;-62
2021/09/11 04:17:54;;;;;;;;;;;;;;;20.27;100.00;100689.03;5034810;28;19948;-62
2021/09/11 04:20:22;;;;;;;;;;;;;;;20.33;100.00;100692.28;5036005;28;20380;-62
2021/09/11 04:22:50;;;;;;;;;;;;;;;20.35;100.00;100698.22;5035586;28;20399;-62
2021/09/11 04:25:17;;;;;;;;;;;;;;;20.36;100.00;100697.88;5035459;28;19933;-62
2021/09/11 04:27:45;;;;;;;;;;;;;;;20.38;100.00;100692.81;5034657;28;19998;-62
2021/09/11 04:30:13;;;;;;;;;;;;;;;20.35;100.00;100696.25;5035800;28;19932;-62
2021/09/11 04:32:41;;;;;;;;;;;;;;;20.40;100.00;100695.97;5035447;28;19929;-62
2021/09/11 04:35:10;;;;;;;;;;;;;;;20.43;100.00;100689.75;5035544;28;19979;-62
2021/09/11 04:37:38;;;;;;;;;;;20.50;99.90;;;20.45;100.00;100684.72;5034245;28;19990;-62
2021/09/11 04:40:07;;;;;;;;;;;20.50;99.90;;;20.44;100.00;100688.63;5035675;28;19925;-62
2021/09/11 04:42:35;;;;;;;;;;;20.50;99.90;;;20.49;100.00;100682.84;5035042;28;19979;-62
2021/09/11 04:45:03;;;;;;;;;;;20.50;99.90;;;20.48;100.00;100681.25;5035490;28;19925;-62
2021/09/11 04:47:30;;;;;;;;;;;20.50;99.90;;;20.48;100.00;100681.25;5034090;28;20443;-62
2021/09/11 04:49:58;;;;;;;;;;;20.60;99.90;;;20.43;100.00;100677.97;5035521;28;19925;-62
2021/09/11 04:52:27;;;;;;;;;;;20.60;99.90;;;20.45;100.00;100683.94;5035385;28;19926;-62
2021/09/11 04:54:55;;;;;;;;;;;20.60;99.90;;;20.42;100.00;100679.97;5035376;28;19925;-63
2021/09/11 04:57:23;;;;;;;;;;;20.60;99.90;;;20.43;100.00;100677.97;5033630;28;19979;-62
2021/09/11 04:59:51;;;;;;;;;;;20.60;99.90;;;20.51;100.00;100680.53;5035384;28;19933;-62
2021/09/11 05:02:19;;;;;;;;;;;20.60;99.90;;;20.52;100.00;100675.81;5035113;28;19925;-62
2021/09/11 05:04:46;;;;;;;;;;;20.70;99.90;;;20.57;100.00;100670.88;5035129;28;19925;-62
2021/09/11 05:07:14;;;;;;;;;;;20.70;99.90;;;20.65;100.00;100680.03;5033623;28;19925;-62
2021/09/11 05:09:43;;;;;;;;;;;20.70;99.90;;;20.72;100.00;100674.69;5035000;28;19925;-62
2021/09/11 05:12:11;;;;;;;;;;;20.80;99.90;;;20.71;100.00;100679.41;5034907;28;19929;-62
2021/09/11 05:14:39;;;;;;;;;;;20.80;99.90;;;20.71;100.00;100681.34;5034868;28;19999;-62
2021/09/11 05:17:06;;;;;;;;;;;20.90;99.90;;;20.73;100.00;100682.56;5034091;28;19926;-62
2021/09/11 05:19:34;;;;;;;;;;;20.90;99.90;;;20.75;100.00;100687.72;5034843;28;19925;-62
2021/09/11 05:22:02;;;;;;;;;;;21.00;99.90;;;20.75;100.00;100700.66;5034734;28;19930;-62
2021/09/11 05:24:30;;;;;;;;;;;20.90;99.90;;;20.71;100.00;100703.31;5034629;28;19925;-62
2021/09/11 05:26:59;;;;;;;;;;;20.90;99.90;;;20.72;100.00;100710.41;5033466;28;19925;-62
2021/09/11 05:29:27;;;;;;;;;;;20.90;99.90;;;20.77;100.00;100714.81;5034733;28;19925;-62
2021/09/11 05:31:55;;;;;;;;;;;20.90;99.90;;;20.69;100.00;100714.69;5034568;28;19933;-63
2021/09/11 05:34:23;;;;;;;;;;;;;;;20.67;100.00;100721.72;5034561;28;19948;-63
2021/09/11 05:36:51;;;;;;;;;;;20.90;99.90;;;20.66;100.00;100720.09;5033155;28;19996;-63
2021/09/11 05:39:19;;;;;;;;;;;;;;;20.65;100.00;100734.97;5034526;28;19929;-62
2021/09/11 05:41:47;;;;;;;;;;;20.80;99.90;;;20.63;100.00;100742.81;5034517;28;20280;-62
2021/09/11 05:44:16;;;;;;;;;;;20.70;99.90;;;20.60;100.00;100738.03;5034365;28;19926;-62
2021/09/11 05:46:44;;;;;;;;;;;20.70;99.90;;;20.53;100.00;100733.16;5033309;28;19925;-62
2021/09/11 05:49:12;;;;;;;;;;;20.60;99.90;;;20.49;100.00;100743.25;5034261;28;20064;-62
2021/09/11 05:51:39;;;;;;;;;;;20.50;99.90;;;20.47;100.00;100740.09;5034241;28;20372;-62
2021/09/11 05:54:07;;;;;;;;;;;20.40;99.90;;;20.44;100.00;100746.28;5034154;28;20377;-63
2021/09/11 05:56:35;;;;;;;;;;;20.40;99.90;;;20.42;100.00;100745.06;5032989;28;19929;-62
2021/09/11 05:59:02;;;;;;;;;;;20.30;99.90;;;20.44;100.00;100743.56;5033964;28;20288;-62
2021/09/11 06:01:32;;;;;;;;;;;20.30;99.90;;;20.47;100.00;100739.28;5034364;28;19925;-62
2021/09/11 06:03:59;;;;;;;;;;;20.30;99.90;;;20.49;100.00;100743.25;5033742;28;19936;-62
2021/09/11 06:06:27;;;;;;;;;;;20.30;99.90;;;20.53;100.00;100741.41;5033201;28;19955;-62
2021/09/11 06:08:55;;;;;;;;;;;20.30;99.90;;;20.60;100.00;100747.06;5033712;28;19925;-62
2021/09/11 06:11:23;;;;;;;;;;;20.40;99.90;;;20.63;100.00;100749.09;5033997;28;19931;-62
2021/09/11 06:13:50;;;;;;;;;;;;;;;20.67;100.00;100727.19;5033841;28;19933;-62
2021/09/11 06:16:18;;;;;;;;;;;20.50;99.90;;;20.63;100.00;100702.38;5032813;28;20347;-62
2021/09/11 06:18:47;;;;;;;;;;;20.50;99.90;;;20.56;100.00;100687.69;5033453;28;19929;-62
2021/09/11 06:21:15;;;;;;;;;;;20.60;99.90;;;20.49;100.00;100693.81;5033836;28;19925;-62
2021/09/11 06:23:43;;;;;;;;;;;20.60;99.90;;;20.47;100.00;100682.41;5033680;28;20364;-62
2021/09/11 06:26:10;;;;;;;;;;;20.60;99.90;;;20.52;100.00;100704.09;5032728;28;19932;-63
2021/09/11 06:28:38;;;;;;;;;;;20.60;99.90;;;20.58;100.00;100710.91;5033104;28;19971;-62
2021/09/11 06:31:06;;;;;;;;;;;20.60;99.90;;;20.70;100.00;100701.75;5033755;28;19925;-62
2021/09/11 06:33:34;;;;;;;;;;;;;;;20.84;100.00;100732.28;5033466;28;20312;-62
2021/09/11 06:36:05;;;;;;;;;;;20.70;99.90;;;21.03;100.00;100734.22;5032302;28;19956;-62
2021/09/11 06:38:33;;;;;;;;;;;20.80;99.90;;;21.16;100.00;100743.94;5032531;28;19925;-62
2021/09/11 06:41:00;;;;;;;;;;;20.90;99.90;;;21.15;100.00;100743.16;5033454;28;19929;-63
2021/09/11 06:43:28;;;;;;;;;;;20.90;99.90;;;21.12;100.00;100748.59;5033396;28;20423;-62
2021/09/11 06:45:56;;;;;;;;;;;21.00;99.90;;;21.07;100.00;100740.59;5031911;28;19932;-62
2021/09/11 06:48:23;;;;;;;;;;;21.00;99.90;;;21.05;100.00;100735.47;5032752;28;20339;-62
2021/09/11 06:50:51;;;;;;;;;;;21.00;99.90;;;21.07;100.00;100738.63;5033217;28;20262;-63
2021/09/11 06:53:20;;;;;;;;;;;21.00;99.90;;;21.09;100.00;100739.13;5033393;28;19952;-62
2021/09/11 06:55:48;;;;;;;;;;;21.00;99.90;;;21.13;100.00;100739.97;5032052;28;19979;-62
2021/09/11 06:58:16;;;;;;;;;;;21.00;99.90;;;21.15;100.00;100743.16;5032293;28;19925;-62
2021/09/11 07:00:43;;;;;;;;;;;21.10;99.90;;;21.24;100.00;100748.44;5032907;28;19929;-62
2021/09/11 07:03:11;;;;;;;;;;;21.10;99.90;;;21.33;100.00;100753.72;5033028;28;19979;-63
2021/09/11 07:05:39;;;;;;;;;;;21.10;99.90;;;21.40;100.00;100748.34;5032048;28;19933;-63
2021/09/11 07:08:06;;;;;;;;;;;21.20;99.90;;;21.47;100.00;100765.78;5032156;28;20292;-62
2021/09/11 07:10:36;;;;;;;;;;;21.20;99.90;;;21.52;100.00;100765.47;5032708;28;19971;-62
2021/09/11 07:13:03;;;;;;;;;;;21.30;99.90;;;21.61;100.00;100774.28;5032942;28;19932;-63
2021/09/11 07:15:31;;;;;;;;;;;21.40;99.90;;;21.72;100.00;100775.28;5032331;28;20247;-63
2021/09/11 07:17:59;;;;;;;;;;;21.40;99.90;;;21.78;100.00;100770.28;5032074;28;20376;-63
2021/09/11 07:20:26;;;;;;;;;;;21.50;99.90;;;21.78;100.00;100779.34;5032872;28;20371;-63
2021/09/11 07:22:54;;;;;;;;;;;21.60;99.90;;;21.73;100.00;100779.63;5032565;28;19929;-63
2021/09/11 07:25:22;;;;;;;;;;;21.60;99.90;;;21.63;100.00;100780.25;5032241;28;19979;-63
2021/09/11 07:27:51;;;;;;;;;;;21.60;99.90;;;21.60;100.00;100778.22;5031560;28;19925;-63
2021/09/11 07:30:19;;;;;;;;;;;21.50;99.90;;;21.64;100.00;100779.06;5032807;28;20351;-62
2021/09/11 07:32:46;;;;;;;;;;;21.50;99.90;;;21.89;100.00;100776.78;5032576;28;19933;-62
2021/09/11 07:35:14;;;;;;;;;;;21.60;99.90;;;22.66;100.00;100770.97;5032584;28;20289;-62
2021/09/11 07:37:43;;;;;;;;;;;22.20;99.90;;;23.65;100.00;100769.47;5031245;28;19925;-63
2021/09/11 07:40:12;;;;;;;;;;;22.60;99.90;;;24.40;100.00;100768.97;5032613;28;19991;-63
2021/09/11 07:42:40;;;;;;;;;;;23.30;99.90;;;25.04;100.00;100767.38;5032354;28;19929;-63
2021/09/11 07:45:13;;;;;;;;;;;24.00;99.90;;;25.57;100.00;100762.03;5032461;28;19925;-63
2021/09/11 07:47:41;;;;;;;;;;;24.50;99.90;;;26.07;100.00;100763.69;5031139;28;20265;-63
2021/09/11 07:50:10;;;;;;;;;;;25.00;99.90;;;26.47;100.00;100758.94;5032632;28;19929;-63
2021/09/11 07:52:38;;;;;;;;;;;25.40;99.90;;;26.69;100.00;100762.47;5036561;28;20120;-63
2021/09/11 07:55:07;;;;;;;;;;;25.80;99.90;;;27.04;100.00;100763.16;5036454;28;19929;-62
2021/09/11 07:57:35;;;;;;;;;;;26.20;99.90;;;27.19;100.00;100752.00;5034971;28;20335;-63
2021/09/11 08:00:05;;;;;;;;;;;26.70;99.90;;;27.22;100.00;100749.19;5036444;28;19929;-63
2021/09/11 08:02:34;;;;;;;;;;;26.70;99.90;;;27.56;100.00;100741.91;5036239;28;19925;-63
2021/09/11 08:05:02;;;;;;;;;;;27.00;99.90;;;27.78;100.00;100733.41;5035957;28;20419;-63
2021/09/11 08:07:30;;;;;;;;;;;27.30;99.90;;;27.82;100.00;100729.41;5034210;28;19925;-63
2021/09/11 08:09:58;;;;;;;;;;;27.30;99.90;;;27.71;100.00;100727.91;5034879;28;19961;-63
2021/09/11 08:12:26;;;;;;;;;;;;;;;27.77;100.00;100738.19;5035095;28;19979;-63
2021/09/11 08:14:58;;;;;;;;;;;27.60;99.90;;;28.15;100.00;100736.28;5034747;28;19929;-63
2021/09/11 08:17:29;;;;;;;;;;;27.90;99.90;;;28.52;100.00;100736.31;5033251;28;19952;-64
2021/09/11 08:19:59;;;;;;;;;;;28.00;99.90;;;28.71;100.00;100735.75;5034828;28;19925;-63
2021/09/11 08:22:32;;;;;;;;;;;28.30;99.90;;;28.86;100.00;100741.94;5034668;28;19925;-63
2021/09/11 08:24:59;;;;;;;;;;;28.60;99.90;;;29.00;100.00;100746.56;5034726;28;20032;-62
2021/09/11 08:27:27;;;;;;;;;;;28.90;99.90;;;29.01;100.00;100750.91;5033236;28;19926;-63
2021/09/11 08:29:55;;;;;;;;;;;29.00;99.90;;;28.87;100.00;100749.09;5034679;28;19933;-63
2021/09/11 08:32:23;;;;;;;;;;;29.00;99.90;;;29.09;100.00;100755.97;5034574;28;20143;-63
2021/09/11 08:34:52;;;;;;;;;;;29.00;99.90;;;29.14;100.00;100751.94;5034615;28;20335;-63
2021/09/11 08:37:21;;;;;;;;;;;29.10;99.90;;;29.14;100.00;100749.94;5033124;28;19929;-63
2021/09/11 08:39:49;;;;;;;;;;;29.00;99.90;;;29.24;100.00;100749.03;5034540;28;19925;-63
2021/09/11 08:42:20;;;;;;;;;;;29.00;99.90;;;29.34;100.00;100749.31;5034458;28;19925;-63
2021/09/11 08:44:48;;;;;;;;;;;29.10;99.90;;;28.81;100.00;100758.31;5034375;28;19979;-63
2021/09/11 08:47:16;;;;;;;;;;;29.00;99.90;;;28.35;100.00;100745.66;5032589;28;19925;-63
2021/09/11 08:49:44;;;;;;;;;;;28.70;99.90;;;27.94;100.00;100756.69;5034438;28;19979;-63
2021/09/11 08:52:13;;;;;;;;;;;28.10;99.90;;;27.98;100.00;100749.13;5034413;28;19925;-63
2021/09/11 08:54:42;;;;;;;;;;;28.20;99.90;;;28.54;100.00;100738.72;5034353;28;19956;-63
2021/09/11 08:57:23;;;;;;;;;;;;;;;29.00;93.72;100741.75;5032820;28;19925;-63
2021/09/11 08:59:51;;;;;;;;;;;;;;;29.06;91.98;100734.53;5034338;28;20381;-63
2021/09/11 09:02:20;;;;;;;;;;;28.60;99.90;;;29.44;98.96;100728.88;5033985;28;19925;-63
2021/09/11 09:04:50;;;;;;;;;;;28.80;99.90;;;29.61;92.47;100734.19;5034045;28;19987;-63
2021/09/11 09:07:34;;;;;;;;;;;29.20;99.90;;;29.85;94.76;100725.91;4956680;28;2172852;-63
2021/09/11 09:10:07;;;;;;;;;;;29.40;99.90;;;29.65;98.16;100729.34;5035245;28;19925;-63
2021/09/11 09:12:36;;;;;;;;;;;29.50;99.90;;;29.83;99.74;100733.88;5035193;28;20364;-63
2021/09/11 09:15:07;;;;;;;;;;;29.60;99.90;;;29.96;94.65;100732.88;5035048;28;20376;-63
2021/09/11 09:17:39;;;;;;;;;;;29.70;99.90;;;30.01;88.38;100743.53;5033567;28;19925;-62
2021/09/11 09:20:21;;;;;;;;;;;29.90;99.90;;;30.04;93.03;100739.09;5034959;28;19973;-63
2021/09/11 09:22:51;;;;;;;;;;;29.90;99.90;;;30.04;92.51;100745.47;5034925;28;19929;-63
2021/09/11 09:25:26;;;;;;;;;;;30.00;99.90;;;30.05;94.04;100746.25;5034500;28;19979;-63
2021/09/11 09:27:56;;;;;;;;;;;30.00;99.90;;;30.08;86.98;100746.19;5033530;28;19929;-63
2021/09/11 09:30:32;;;;;;;;;;;30.10;99.90;;;30.21;91.22;100746.38;5034732;28;19925;-63
2021/09/11 09:33:00;;;;;;;;;;;30.10;99.90;;;30.28;91.09;100741.44;5034780;28;19932;-63
2021/09/11 09:35:27;;;;;;;;;;;30.30;99.90;;;30.38;91.81;100744.47;5034443;28;19932;-63
2021/09/11 09:37:57;;;;;;;;;;;30.40;99.90;;;30.49;91.69;100747.91;5033617;28;19929;-63
2021/09/11 09:40:37;;;;;;;;;;;30.50;99.90;;;30.32;86.88;100744.19;5034810;28;19975;-64
2021/09/11 09:43:05;;;;;;;;;;;30.50;99.90;;;30.00;84.56;100749.53;5034698;28;20363;-63
2021/09/11 09:45:35;;;;;;;;;;;30.40;99.90;;;29.72;84.88;100747.97;5033830;28;19929;-63
2021/09/11 09:48:04;;;;;;;;;;;30.10;99.90;;;29.53;84.13;100760.56;5033571;28;19931;-63
2021/09/11 09:50:33;;;;;;;;;;;30.00;99.90;;;29.54;85.51;100753.81;5034450;28;20340;-62
2021/09/11 09:53:01;;;;;;;;;;;29.80;99.90;;;29.81;86.78;100759.38;5034327;28;19926;-63
2021/09/11 09:55:29;;;;;;;;;;;29.90;99.90;;;29.98;86.16;100752.75;5033845;28;20380;-63
2021/09/11 09:57:58;;;;;;;;;;;30.00;99.90;;;30.07;84.57;100752.97;5033266;28;19991;-63
2021/09/11 10:00:27;;;;;;;;;;;30.10;99.90;;;30.07;83.81;100758.56;5034308;28;19929;-63
2021/09/11 10:02:54;;;;;;;;;;;30.10;99.90;;;30.07;83.52;100752.19;5034074;28;19929;-63
2021/09/11 10:05:25;;;;;;;;;;;30.30;99.90;;;30.01;83.21;100751.88;5033841;28;19925;-63
2021/09/11 10:08:10;;;;;;;;;;;;;;;29.98;83.57;100746.38;5032673;28;19959;-63
2021/09/11 10:10:41;;;;;;;;;;;30.30;99.90;;;29.99;83.13;100754.31;5034065;28;19929;-63
2021/09/11 10:13:15;;;;;;;;;;;30.30;99.90;;;29.94;82.54;100751.22;5033244;28;19956;-63
2021/09/11 10:15:54;;;;;;;;;;;30.20;99.90;;;30.02;80.55;100756.25;5033144;28;19925;-63
2021/09/11 10:18:43;;;;;;;;;;;30.30;99.90;;;30.14;78.40;100760.44;5033112;28;19925;-63
2021/09/11 10:21:35;;;;;;;;;;;30.30;99.90;;;30.21;78.91;100763.13;5026707;28;19926;-62
2021/09/11 10:24:31;;;;;;;;;;;30.30;99.90;;;30.56;79.12;100756.91;5033716;28;19979;-63
2021/09/11 10:27:01;;;;;;;;;;;30.50;99.90;;;30.81;75.78;100754.44;5032481;28;19921;-63
2021/09/11 10:29:50;;;;;;;;;;;30.80;99.90;;;30.88;76.30;100754.28;5033702;28;20034;-63
2021/09/11 10:32:21;;;;;;;;;;;30.90;99.90;;;30.79;74.52;100745.69;5033778;28;20506;-63
2021/09/11 10:34:54;;;;;;;;;;;31.00;99.90;;;30.65;72.63;100742.41;5033402;28;19979;-63
2021/09/11 10:37:39;;;;;;;;;;;31.00;99.90;;;30.43;72.52;100749.63;5032119;28;20023;-63
2021/09/11 10:40:30;;;;;;;;;;;30.80;99.90;;;30.39;67.40;100746.09;5033379;28;19929;-63
2021/09/11 10:43:19;;;;;;;;;;;30.80;99.90;;;30.28;71.35;100749.03;5033384;28;19929;-63
2021/09/11 10:46:02;;;;;;;;;;;30.60;99.90;;;30.40;72.64;100750.47;5030464;28;20416;-63
2021/09/11 10:48:56;;;;;;;;;;;30.60;99.90;;;30.31;71.23;100742.59;5032632;28;20023;-63
2021/09/11 10:51:30;;;;;;;;;;;30.50;99.90;;;30.32;71.70;100738.59;5033418;28;19925;-63
2021/09/11 10:54:12;;;;;;;;;;;30.50;99.90;;;30.38;70.96;100733.31;5033061;28;20015;-63
2021/09/11 10:56:46;;;;;;;;;;;30.60;99.90;;;30.33;70.79;100723.44;5032046;28;19925;-63
2021/09/11 10:59:43;;;;;;;;;;;30.60;99.90;;;30.19;69.12;100730.06;5032842;28;20368;-63
2021/09/11 11:02:24;;;;;;;;;;;30.50;99.90;;;30.08;68.66;100723.91;5033050;28;19940;-63
2021/09/11 11:04:58;;;;;;;;;;;30.40;99.90;;;30.05;69.51;100719.16;5033068;28;19929;-63
2021/09/11 11:07:27;;;;;;;;;;;30.30;99.90;;;30.20;70.41;100723.28;5031757;28;19929;-63
2021/09/11 11:09:57;;;;;;;;;;;30.40;99.90;;;30.39;70.54;100718.19;5032763;28;19925;-63
2021/09/11 11:12:27;;;;;;;;;;;30.50;99.90;;;30.47;69.47;100720.41;5032966;28;19929;-63
2021/09/11 11:14:58;;;;;;;;;;;30.50;99.90;;;30.45;66.94;100710.91;5032922;28;19933;-63
2021/09/11 11:17:27;;;;;;;;;;;30.60;99.90;;;30.28;68.32;100713.56;5031683;28;19925;-63
2021/09/11 11:19:56;;;;;;;;;;;30.50;99.90;;;30.25;69.14;100710.81;5032780;28;19932;-63
2021/09/11 11:22:29;;;;;;;;;;;30.50;99.90;;;30.39;68.99;100707.81;5032896;28;19930;-63
2021/09/11 11:24:57;;;;;;;;;;;30.60;99.90;;;30.30;67.74;100715.94;5032549;28;20347;-63
2021/09/11 11:27:26;;;;;;;;;;;30.50;99.90;;;30.24;67.28;100715.66;5031476;28;19929;-62
2021/09/11 11:29:55;;;;;;;;;;;30.50;99.90;;;30.18;67.27;100722.94;5032673;28;20335;-62
2021/09/11 11:32:28;;;;;;;;;;;30.50;99.90;;;30.10;67.26;100721.47;5032801;28;19929;-63
2021/09/11 11:34:59;;;;;;;;;;;30.40;99.90;;;29.99;66.41;100712.50;5032686;28;19933;-63
2021/09/11 11:37:28;;;;;;;;;;;30.40;99.90;;;29.83;64.89;100714.34;5031473;28;19931;-63
2021/09/11 11:39:58;;;;;;;;;;;30.10;99.90;;;29.79;66.24;100714.41;5032701;28;19969;-63